createdAt,value
2023-01-11T00:00:59.968Z,100369.31
2023-01-11T00:04:03.171Z,100375.56
2023-01-11T00:07:05.869Z,100374.69
2023-01-11T00:10:09.454Z,100374.69
2023-01-11T00:13:11.991Z,100372.87
2023-01-11T00:16:15.175Z,100380.19
2023-01-11T00:19:17.723Z,100374.59
2023-01-11T00:22:21.062Z,100378.72
2023-01-11T00:25:23.701Z,100378.34
2023-01-11T00:28:26.840Z,100367.91
2023-01-11T00:31:29.417Z,100385.06
2023-01-11T00:34:32.464Z,100377.38
2023-01-11T00:37:35.314Z,100379.22
2023-01-11T00:40:38.222Z,100378.16
2023-01-11T00:43:59.286Z,100380.66
2023-01-11T00:47:21.244Z,100383.34
2023-01-11T00:50:44.035Z,100388.69
2023-01-11T00:53:48.516Z,100388.97
2023-01-11T00:56:51.150Z,100396.28
2023-01-11T00:59:54.248Z,100397.78
2023-01-11T01:02:57.272Z,100398.00
2023-01-11T01:06:00.353Z,100403.78
2023-01-11T01:09:02.869Z,100405.19
2023-01-11T01:12:07.149Z,100406.72
2023-01-11T01:15:10.175Z,100409.31
2023-01-11T01:18:13.302Z,100419.84
2023-01-11T01:21:15.777Z,100415.91
2023-01-11T01:24:18.859Z,100415.72
2023-01-11T01:27:21.342Z,100414.94
2023-01-11T01:30:24.484Z,100423.78
2023-01-11T01:33:26.967Z,100431.25
2023-01-11T01:36:30.143Z,100424.38
2023-01-11T01:39:33.022Z,100423.50
2023-01-11T01:42:36.024Z,100425.91
2023-01-11T01:45:38.809Z,100431.81
2023-01-11T01:48:43.768Z,100436.97
2023-01-11T01:51:54.329Z,100438.47
2023-01-11T01:55:02.861Z,100428.75
2023-01-11T01:58:10.277Z,100426.53
2023-01-11T02:01:33.743Z,100436.41
2023-01-11T02:04:44.031Z,100426.25
2023-01-11T02:07:47.903Z,100436.34
2023-01-11T02:10:50.670Z,100427.69
2023-01-11T02:13:55.696Z,100441.06
2023-01-11T02:16:58.302Z,100453.56
2023-01-11T02:20:42.751Z,100460.78
2023-01-11T02:24:03.324Z,100452.47
2023-01-11T02:27:29.484Z,100455.31
2023-01-11T02:30:42.294Z,100452.66
2023-01-11T02:33:45.277Z,100450.69
2023-01-11T02:37:05.826Z,100448.72
2023-01-11T02:40:37.441Z,100461.56
2023-01-11T02:44:11.608Z,100447.81
2023-01-11T02:47:25.155Z,100454.00
2023-01-11T02:50:34.808Z,100462.19
2023-01-11T02:53:47.506Z,100454.97
2023-01-11T02:56:54.873Z,100446.06
2023-01-11T02:59:58.365Z,100454.88
2023-01-11T03:03:15.464Z,100465.56
2023-01-11T03:06:22.658Z,100462.97
2023-01-11T03:09:32.554Z,100468.75
2023-01-11T03:12:57.144Z,100467.09
2023-01-11T03:16:28.106Z,100474.75
2023-01-11T03:19:51.575Z,100476.69
2023-01-11T03:23:00.046Z,100476.88
2023-01-11T03:26:12.177Z,100484.06
2023-01-11T03:29:39.166Z,100489.16
2023-01-11T03:33:10.018Z,100499.97
2023-01-11T03:36:23.950Z,100510.66
2023-01-11T03:39:56.950Z,100508.16
2023-01-11T03:43:10.938Z,100511.25
2023-01-11T03:46:20.896Z,100512.47
2023-01-11T03:49:27.435Z,100508.69
2023-01-11T03:52:35.840Z,100498.19
2023-01-11T03:55:41.863Z,100486.75
2023-01-11T03:58:44.997Z,100478.13
2023-01-11T04:01:47.626Z,100466.81
2023-01-11T04:04:50.840Z,100458.84
2023-01-11T04:07:54.474Z,100469.97
2023-01-11T04:10:57.694Z,100479.44
2023-01-11T04:14:01.436Z,100475.97
2023-01-11T04:17:04.907Z,100470.59
2023-01-11T04:20:10.155Z,100483.31
2023-01-11T04:23:14.057Z,100492.88
2023-01-11T04:26:17.620Z,100481.91
2023-01-11T04:29:20.738Z,100486.88
2023-01-11T04:32:23.333Z,100490.84
2023-01-11T04:35:27.166Z,100488.88
2023-01-11T04:38:29.769Z,100477.56
2023-01-11T04:41:51.172Z,100480.16
2023-01-11T04:44:53.725Z,100488.88
2023-01-11T04:47:57.892Z,100500.63
2023-01-11T04:51:00.414Z,100519.50
2023-01-11T04:54:04.013Z,100526.25
2023-01-11T04:57:07.962Z,100533.91
2023-01-11T05:00:11.785Z,100525.75
2023-01-11T05:03:14.303Z,100514.03
2023-01-11T05:06:22.663Z,100520.91
2023-01-11T05:09:25.244Z,100517.22
2023-01-11T05:12:28.311Z,100522.41
2023-01-11T05:15:30.821Z,100519.91
2023-01-11T05:18:33.927Z,100502.81
2023-01-11T05:21:42.460Z,100506.19
2023-01-11T05:24:45.566Z,100520.50
2023-01-11T05:27:48.052Z,100534.22
2023-01-11T05:30:53.442Z,100531.03
2023-01-11T05:33:57.992Z,100532.44
2023-01-11T05:37:01.055Z,100541.69
2023-01-11T05:40:05.427Z,100528.47
2023-01-11T05:43:08.594Z,100523.78
2023-01-11T05:46:11.249Z,100507.47
2023-01-11T05:49:15.076Z,100511.37
2023-01-11T05:52:17.658Z,100514.66
2023-01-11T05:55:20.809Z,100514.87
2023-01-11T05:58:26.200Z,100524.00
2023-01-11T06:01:29.776Z,100519.53
2023-01-11T06:04:32.647Z,100505.72
2023-01-11T06:07:35.545Z,100499.47
2023-01-11T06:10:38.451Z,100510.91
2023-01-11T06:13:41.590Z,100507.41
2023-01-11T06:16:44.581Z,100515.97
2023-01-11T06:19:47.394Z,100507.22
2023-01-11T06:22:50.207Z,100512.09
2023-01-11T06:25:53.369Z,100519.03
2023-01-11T06:28:56.241Z,100516.44
2023-01-11T06:31:59.004Z,100512.00
2023-01-11T06:35:01.880Z,100515.56
2023-01-11T06:38:05.314Z,100531.25
2023-01-11T06:41:11.470Z,100525.22
2023-01-11T06:44:14.304Z,100509.59
2023-01-11T06:47:17.118Z,100522.53
2023-01-11T06:50:20.033Z,100544.94
2023-01-11T06:53:24.978Z,100542.47
2023-01-11T06:56:29.061Z,100545.16
2023-01-11T06:59:31.832Z,100552.81
2023-01-11T07:02:34.756Z,100556.31
2023-01-11T07:05:37.680Z,100552.22
2023-01-11T07:08:40.536Z,100569.59
2023-01-11T07:11:43.332Z,100573.19
2023-01-11T07:14:46.123Z,100575.78
2023-01-11T07:17:54.302Z,100584.72
2023-01-11T07:20:57.108Z,100589.97
2023-01-11T07:24:00.094Z,100586.09
2023-01-11T07:27:03.129Z,100604.09
2023-01-11T07:30:07.928Z,100611.13
2023-01-11T07:33:12.595Z,100606.06
2023-01-11T07:36:15.463Z,100610.53
2023-01-11T07:39:18.337Z,100614.88
2023-01-11T07:42:39.839Z,100624.22
2023-01-11T07:45:46.616Z,100610.31
2023-01-11T07:48:49.928Z,100602.66
2023-01-11T07:51:52.771Z,100595.47
2023-01-11T07:54:55.607Z,100595.25
2023-01-11T07:57:58.730Z,100588.97
2023-01-11T08:01:01.873Z,100588.16
2023-01-11T08:04:04.963Z,100589.16
2023-01-11T08:07:07.479Z,100589.03
2023-01-11T08:10:11.071Z,100592.87
2023-01-11T08:13:33.103Z,100604.59
2023-01-11T08:16:36.306Z,100613.22
2023-01-11T08:19:39.337Z,100613.66
2023-01-11T08:22:42.389Z,100614.47
2023-01-11T08:25:44.999Z,100601.72
2023-01-11T08:28:48.459Z,100613.13
2023-01-11T08:31:51.480Z,100620.97
2023-01-11T08:34:54.603Z,100615.19
2023-01-11T08:37:57.230Z,100618.06
2023-01-11T08:41:01.758Z,100624.22
2023-01-11T08:44:04.779Z,100638.69
2023-01-11T08:47:07.988Z,100620.72
2023-01-11T08:50:11.068Z,100621.28
2023-01-11T08:53:14.180Z,100610.13
2023-01-11T08:56:16.679Z,100613.13
2023-01-11T08:59:22.018Z,100617.88
2023-01-11T09:02:24.545Z,100616.44
2023-01-11T09:05:27.593Z,100611.88
2023-01-11T09:08:30.101Z,100610.84
2023-01-11T09:11:51.668Z,100611.19
2023-01-11T09:14:54.556Z,100619.16
2023-01-11T09:17:57.657Z,100604.69
2023-01-11T09:21:00.212Z,100595.88
2023-01-11T09:24:04.573Z,100594.53
2023-01-11T09:27:07.337Z,100597.19
2023-01-11T09:30:13.142Z,100595.22
2023-01-11T09:33:15.781Z,100588.56
2023-01-11T09:36:21.798Z,100584.47
2023-01-11T09:39:27.471Z,100582.84
2023-01-11T09:42:36.772Z,100579.06
2023-01-11T09:45:46.707Z,100584.22
2023-01-11T09:48:58.759Z,100573.84
2023-01-11T09:52:29.305Z,100574.84
2023-01-11T09:55:44.906Z,100575.59
2023-01-11T09:59:23.001Z,100572.31
2023-01-11T10:03:00.017Z,100567.41
2023-01-11T10:06:20.706Z,100550.78
2023-01-11T10:18:31.570Z,100531.53
2023-01-11T10:20:43.894Z,100527.50
2023-01-11T10:23:50.398Z,100521.84
2023-01-11T10:27:02.095Z,100521.87
2023-01-11T10:30:32.976Z,100532.63
2023-01-11T10:33:48.569Z,100525.91
2023-01-11T10:37:18.822Z,100528.44
2023-01-11T10:40:40.536Z,100534.53
2023-01-11T10:43:45.984Z,100532.00
2023-01-11T10:46:52.792Z,100522.69
2023-01-11T10:50:16.384Z,100521.63
2023-01-11T10:53:59.809Z,100524.13
2023-01-11T10:57:59.738Z,100523.38
2023-01-11T11:01:17.196Z,100531.66
2023-01-11T11:04:28.917Z,100520.56
2023-01-11T11:07:38.107Z,100519.22
2023-01-11T11:10:56.996Z,100516.72
2023-01-11T11:14:09.334Z,100511.97
2023-01-11T11:17:24.685Z,100493.06
2023-01-11T11:20:33.980Z,100486.50
2023-01-11T11:23:38.220Z,100487.34
2023-01-11T11:26:44.952Z,100486.44
2023-01-11T11:29:55.886Z,100476.09
2023-01-11T11:33:02.624Z,100481.19
2023-01-11T11:36:08.904Z,100476.38
2023-01-11T11:39:25.518Z,100474.78
2023-01-11T11:42:28.991Z,100472.09
2023-01-11T11:45:31.899Z,100474.22
2023-01-11T11:48:35.463Z,100477.00
2023-01-11T11:51:40.038Z,100476.16
2023-01-11T11:54:57.018Z,100479.69
2023-01-11T11:58:05.783Z,100475.25
2023-01-11T12:01:33.435Z,100488.44
2023-01-11T12:04:47.329Z,100483.12
2023-01-11T12:07:55.884Z,100482.22
2023-01-11T12:11:01.889Z,100486.62
2023-01-11T12:14:16.602Z,100488.41
2023-01-11T12:17:24.678Z,100484.09
2023-01-11T12:20:29.169Z,100483.25
2023-01-11T12:23:32.011Z,100480.56
2023-01-11T12:26:45.950Z,100481.31
2023-01-11T12:29:57.729Z,100482.88
2023-01-11T12:33:45.255Z,100486.56
2023-01-11T12:36:53.997Z,100497.06
2023-01-11T12:40:13.688Z,100486.53
2023-01-11T12:43:38.801Z,100482.31
2023-01-11T12:47:01.960Z,100483.56
2023-01-11T12:50:17.726Z,100481.88
2023-01-11T12:53:39.030Z,100481.75
2023-01-11T12:56:57.497Z,100484.41
2023-01-11T13:00:26.481Z,100471.47
2023-01-11T13:03:41.587Z,100480.66
2023-01-11T13:06:56.809Z,100462.41
2023-01-11T13:10:05.625Z,100460.22
2023-01-11T13:13:32.190Z,100472.78
2023-01-11T13:16:48.267Z,100466.97
2023-01-11T13:19:53.686Z,100474.31
2023-01-11T13:23:16.681Z,100481.56
2023-01-11T13:26:22.124Z,100478.63
2023-01-11T13:29:30.538Z,100486.88
2023-01-11T13:32:37.636Z,100485.78
2023-01-11T13:35:50.063Z,100492.19
2023-01-11T13:38:59.320Z,100490.16
2023-01-11T13:42:14.093Z,100500.88
2023-01-11T13:45:30.296Z,100501.87
2023-01-11T13:48:48.908Z,100517.03
2023-01-11T13:52:02.163Z,100510.47
2023-01-11T13:55:14.437Z,100503.25
2023-01-11T13:58:37.086Z,100506.50
2023-01-11T14:01:54.610Z,100506.62
2023-01-11T14:05:03.866Z,100511.22
2023-01-11T14:08:22.782Z,100511.47
2023-01-11T14:12:01.028Z,100511.41
2023-01-11T14:15:26.523Z,100509.31
2023-01-11T14:18:40.721Z,100506.81
2023-01-11T14:22:05.399Z,100506.03
2023-01-11T14:25:30.830Z,100510.63
2023-01-11T14:28:57.156Z,100495.09
2023-01-11T14:32:18.868Z,100497.41
2023-01-11T14:35:56.122Z,100495.47
2023-01-11T14:39:23.909Z,100508.59
2023-01-11T14:42:49.723Z,100503.38
2023-01-11T14:46:26.868Z,100509.97
2023-01-11T14:49:51.849Z,100504.09
2023-01-11T14:53:00.886Z,100503.50
2023-01-11T14:56:03.580Z,100502.91
2023-01-11T14:59:28.015Z,100510.66
2023-01-11T15:02:32.579Z,100505.56
2023-01-11T15:05:43.030Z,100506.13
2023-01-11T15:08:48.699Z,100506.88
2023-01-11T15:11:51.835Z,100498.66
2023-01-11T15:15:07.818Z,100498.16
2023-01-11T15:18:18.887Z,100502.03
2023-01-11T15:21:26.840Z,100492.91
2023-01-11T15:24:31.065Z,100499.41
2023-01-11T15:27:38.428Z,100510.31
2023-01-11T15:30:51.591Z,100516.94
2023-01-11T15:33:55.028Z,100514.78
2023-01-11T15:37:05.433Z,100509.16
2023-01-11T15:40:25.436Z,100526.16
2023-01-11T15:43:59.892Z,100525.22
2023-01-11T15:47:44.969Z,100519.56
2023-01-11T15:51:13.284Z,100512.28
2023-01-11T15:55:04.451Z,100519.78
2023-01-11T15:58:40.027Z,100519.47
2023-01-11T16:02:13.764Z,100523.47
2023-01-11T16:05:21.829Z,100527.38
2023-01-11T16:08:36.765Z,100525.34
2023-01-11T16:12:02.046Z,100520.88
2023-01-11T16:15:40.059Z,100526.75
2023-01-11T16:18:47.084Z,100515.31
2023-01-11T16:21:53.183Z,100520.28
2023-01-11T16:24:59.972Z,100515.63
2023-01-11T16:28:03.999Z,100514.66
2023-01-11T16:31:07.341Z,100519.69
2023-01-11T16:34:14.939Z,100512.66
2023-01-11T16:37:23.780Z,100509.16
2023-01-11T16:40:31.616Z,100516.06
2023-01-11T16:43:36.361Z,100508.09
2023-01-11T16:47:12.020Z,100514.03
2023-01-11T16:50:24.684Z,100515.25
2023-01-11T16:53:29.256Z,100513.12
2023-01-11T16:56:35.376Z,100519.56
2023-01-11T16:59:37.987Z,100513.06
2023-01-11T17:02:43.280Z,100504.06
2023-01-11T17:06:15.847Z,100516.00
2023-01-11T17:09:22.601Z,100517.41
2023-01-11T17:12:26.533Z,100518.00
2023-01-11T17:15:37.067Z,100517.72
2023-01-11T17:18:41.123Z,100516.69
2023-01-11T17:21:53.511Z,100521.53
2023-01-11T17:25:17.787Z,100525.56
2023-01-11T17:28:21.217Z,100525.97
2023-01-11T17:31:30.416Z,100524.19
2023-01-11T17:34:36.191Z,100522.31
2023-01-11T17:37:39.371Z,100514.53
2023-01-11T17:40:45.072Z,100521.06
2023-01-11T17:44:06.113Z,100524.38
2023-01-11T17:47:12.040Z,100529.56
2023-01-11T17:50:24.279Z,100539.88
2023-01-11T17:53:32.433Z,100533.69
2023-01-11T17:56:41.734Z,100530.03
2023-01-11T17:59:44.953Z,100537.72
2023-01-11T18:02:47.596Z,100534.16
2023-01-11T18:05:50.751Z,100539.88
2023-01-11T18:08:55.813Z,100543.84
2023-01-11T18:12:15.283Z,100546.41
2023-01-11T18:15:30.307Z,100543.00
2023-01-11T18:18:47.123Z,100554.81
2023-01-11T18:21:56.014Z,100556.44
2023-01-11T18:25:02.057Z,100558.03
2023-01-11T18:28:21.935Z,100561.44
2023-01-11T18:31:25.453Z,100561.50
2023-01-11T18:34:28.320Z,100559.09
2023-01-11T18:37:32.143Z,100560.97
2023-01-11T18:40:35.296Z,100565.00
2023-01-11T18:43:38.556Z,100560.44
2023-01-11T18:46:41.129Z,100576.00
2023-01-11T18:49:44.742Z,100574.94
2023-01-11T18:52:47.244Z,100579.37
2023-01-11T18:55:50.381Z,100576.78
2023-01-11T18:58:52.901Z,100581.62
2023-01-11T19:02:17.407Z,100572.66
2023-01-11T19:05:20.677Z,100579.66
2023-01-11T19:08:24.262Z,100570.06
2023-01-11T19:11:28.883Z,100570.16
2023-01-11T19:14:32.017Z,100577.78
2023-01-11T19:17:34.635Z,100579.66
2023-01-11T19:20:37.945Z,100578.03
2023-01-11T19:23:41.255Z,100580.63
2023-01-11T19:26:44.478Z,100582.94
2023-01-11T19:29:47.132Z,100574.19
2023-01-11T19:32:52.716Z,100593.94
2023-01-11T19:35:55.501Z,100600.53
2023-01-11T19:38:58.560Z,100606.28
2023-01-11T19:42:02.392Z,100609.47
2023-01-11T19:45:05.905Z,100607.41
2023-01-11T19:48:08.510Z,100609.00
2023-01-11T19:51:12.887Z,100619.19
2023-01-11T19:54:16.168Z,100619.53
2023-01-11T19:57:23.519Z,100615.59
2023-01-11T20:00:26.112Z,100608.97
2023-01-11T20:03:32.021Z,100622.41
2023-01-11T20:06:34.825Z,100614.66
2023-01-11T20:09:38.603Z,100623.84
2023-01-11T20:12:41.116Z,100622.84
2023-01-11T20:15:44.387Z,100622.56
2023-01-11T20:18:55.198Z,100613.00
2023-01-11T20:21:58.519Z,100606.06
2023-01-11T20:25:01.115Z,100608.25
2023-01-11T20:28:04.392Z,100610.56
2023-01-11T20:31:07.098Z,100613.34
2023-01-11T20:34:11.384Z,100619.34
2023-01-11T20:37:15.082Z,100618.41
2023-01-11T20:40:18.293Z,100620.03
2023-01-11T20:43:20.805Z,100618.94
2023-01-11T20:46:23.960Z,100629.28
2023-01-11T20:49:31.768Z,100617.88
2023-01-11T20:52:34.873Z,100616.47
2023-01-11T20:55:37.469Z,100618.94
2023-01-11T20:58:40.848Z,100621.44
2023-01-11T21:01:43.964Z,100626.50
2023-01-11T21:04:47.145Z,100631.78
2023-01-11T21:07:52.831Z,100634.28
2023-01-11T21:10:57.108Z,100644.44
2023-01-11T21:14:01.048Z,100653.16
2023-01-11T21:17:04.220Z,100657.47
2023-01-11T21:20:07.422Z,100652.81
2023-01-11T21:23:15.239Z,100648.84
2023-01-11T21:26:19.056Z,100648.44
2023-01-11T21:29:22.376Z,100649.84
2023-01-11T21:32:24.957Z,100654.13
2023-01-11T21:35:28.314Z,100659.00
2023-01-11T21:38:32.436Z,100657.03
2023-01-11T21:41:54.175Z,100665.38
2023-01-11T21:44:56.768Z,100666.88
2023-01-11T21:48:00.112Z,100669.25
2023-01-11T21:51:04.109Z,100674.75
2023-01-11T21:54:10.188Z,100671.16
2023-01-11T21:57:12.805Z,100670.56
2023-01-11T22:00:17.485Z,100668.97
2023-01-11T22:03:20.304Z,100678.63
2023-01-11T22:06:23.366Z,100673.44
2023-01-11T22:09:27.657Z,100671.28
2023-01-11T22:12:30.793Z,100684.66
2023-01-11T22:15:33.605Z,100677.84
2023-01-11T22:18:36.833Z,100676.34
2023-01-11T22:21:40.157Z,100675.41
2023-01-11T22:24:42.984Z,100677.84
2023-01-11T22:27:45.815Z,100677.13
2023-01-11T22:30:48.623Z,100678.00
2023-01-11T22:33:52.038Z,100676.91
2023-01-11T22:36:54.732Z,100680.91
2023-01-11T22:40:00.716Z,100679.50
2023-01-11T22:43:04.305Z,100685.94
2023-01-11T22:46:07.329Z,100686.78
2023-01-11T22:49:10.978Z,100693.59
2023-01-11T22:52:13.826Z,100689.16
2023-01-11T22:55:16.651Z,100689.81
2023-01-11T22:58:19.466Z,100696.91
2023-01-11T23:01:25.361Z,100698.97
2023-01-11T23:04:28.183Z,100690.44
2023-01-11T23:07:31.358Z,100704.53
2023-01-11T23:10:34.176Z,100695.50
2023-01-11T23:13:52.483Z,100690.56
2023-01-11T23:16:55.970Z,100687.13
2023-01-11T23:19:58.658Z,100689.34
2023-01-11T23:23:01.381Z,100694.50
2023-01-11T23:26:06.011Z,100676.44
2023-01-11T23:29:09.460Z,100690.72
2023-01-11T23:32:12.244Z,100685.59
2023-01-11T23:35:15.171Z,100682.53
2023-01-11T23:38:18.007Z,100676.50
2023-01-11T23:41:40.432Z,100685.31
2023-01-11T23:44:43.213Z,100688.25
2023-01-11T23:47:46.053Z,100690.47
2023-01-11T23:50:48.916Z,100688.88
2023-01-11T23:53:51.783Z,100687.69
2023-01-11T23:56:55.447Z,100686.00
2023-01-11T23:59:58.212Z,100689.41
